< < Back
Terminal Aerodrome Forecast


Current Version              Previous Versions:   1  2  3  4  5  6  7  8  9  

Terminal Aerodrome Forecast

443
FTUS44 KBMX 221120
TAFBHM
TAF
KBHM 221120Z 2212/2312 36005KT P6SM BKN120
     FM221500 02011KT P6SM SCT100
     FM230300 00000KT P6SM SKC=

Latest METAR

787
SAUS70 KWBC 221600 RRB
MTRBHM
METAR KBHM 221553Z 05007KT 10SM SCT250 19/08 A3027 RMK AO2 SLP246
T01940083


USA.gov is the U.S. government's official web portal to all federal, state and local government web resources and services.